createdAt,value
2017-07-17T00:01:39.879Z,6.33
2017-07-17T00:04:07.405Z,6.77
2017-07-17T00:06:34.908Z,7.23
2017-07-17T00:09:02.425Z,7.30
2017-07-17T00:11:29.962Z,9.03
2017-07-17T00:13:57.550Z,8.30
2017-07-17T00:16:25.067Z,6.93
2017-07-17T00:18:52.598Z,8.20
2017-07-17T00:21:20.149Z,5.53
2017-07-17T00:23:47.677Z,10.53
2017-07-17T00:26:15.192Z,7.00
2017-07-17T00:28:42.689Z,8.27
2017-07-17T00:31:10.216Z,7.50
2017-07-17T00:33:37.746Z,7.60
2017-07-17T00:36:05.276Z,8.93
2017-07-17T00:38:32.811Z,7.50
2017-07-17T00:41:00.338Z,7.57
2017-07-17T00:43:27.855Z,7.00
2017-07-17T00:45:55.374Z,7.10
2017-07-17T00:48:22.921Z,10.40
2017-07-17T00:50:50.421Z,8.00
2017-07-17T00:53:17.936Z,7.00
2017-07-17T00:55:45.478Z,9.37
2017-07-17T00:58:13.003Z,9.73
2017-07-17T01:00:40.539Z,7.50
2017-07-17T01:03:08.061Z,7.77
2017-07-17T01:05:35.580Z,10.50
2017-07-17T01:08:03.110Z,7.93
2017-07-17T01:10:30.641Z,8.07
2017-07-17T01:12:58.174Z,9.10
2017-07-17T01:15:25.700Z,9.50
2017-07-17T01:17:53.264Z,8.30
2017-07-17T01:20:20.823Z,7.17
2017-07-17T01:22:48.326Z,9.93
2017-07-17T01:25:16.124Z,7.57
2017-07-17T01:27:43.660Z,8.43
2017-07-17T01:30:11.178Z,19.23
2017-07-17T01:32:38.706Z,8.83
2017-07-17T01:35:06.233Z,7.53
2017-07-17T01:37:33.778Z,7.63
2017-07-17T01:40:01.342Z,8.00
2017-07-17T01:42:28.855Z,9.27
2017-07-17T01:44:56.419Z,7.93
2017-07-17T01:47:23.960Z,8.70
2017-07-17T01:49:51.513Z,8.57
2017-07-17T01:52:19.023Z,7.37
2017-07-17T01:54:46.546Z,8.77
2017-07-17T01:57:14.095Z,10.40
2017-07-17T01:59:41.611Z,8.60
2017-07-17T02:02:09.432Z,9.97
2017-07-17T02:04:36.945Z,8.90
2017-07-17T02:07:04.469Z,17.37
2017-07-17T02:09:32.000Z,9.80
2017-07-17T02:11:59.513Z,10.57
2017-07-17T02:14:27.105Z,9.30
2017-07-17T02:16:55.079Z,10.83
2017-07-17T02:19:22.626Z,10.20
2017-07-17T02:21:50.168Z,10.70
2017-07-17T02:24:17.698Z,8.47
2017-07-17T02:26:45.256Z,9.93
2017-07-17T02:29:12.763Z,12.73
2017-07-17T02:31:40.307Z,10.60
2017-07-17T02:34:07.855Z,12.73
2017-07-17T02:36:35.389Z,13.70
2017-07-17T02:39:03.225Z,10.53
2017-07-17T02:41:30.751Z,9.67
2017-07-17T02:43:58.276Z,12.87
2017-07-17T02:46:25.798Z,10.03
2017-07-17T02:48:53.341Z,9.33
2017-07-17T02:51:20.859Z,8.33
2017-07-17T02:53:48.388Z,9.40
2017-07-17T02:56:17.051Z,9.27
2017-07-17T02:58:44.552Z,8.00
2017-07-17T03:01:12.096Z,10.30
2017-07-17T03:03:40.779Z,11.60
2017-07-17T03:06:08.449Z,11.70
2017-07-17T03:08:36.252Z,9.77
2017-07-17T03:11:03.772Z,13.20
2017-07-17T03:13:31.310Z,14.97
2017-07-17T03:15:58.835Z,14.50
2017-07-17T03:18:26.376Z,9.20
2017-07-17T03:20:53.914Z,13.40
2017-07-17T03:23:22.213Z,11.10
2017-07-17T03:25:49.723Z,14.33
2017-07-17T03:28:17.256Z,10.57
2017-07-17T03:30:44.784Z,12.90
2017-07-17T03:33:12.342Z,9.10
2017-07-17T03:35:39.883Z,9.70
2017-07-17T03:38:08.174Z,11.10
2017-07-17T03:40:35.716Z,10.33
2017-07-17T03:43:03.253Z,9.90
2017-07-17T03:45:30.777Z,12.33
2017-07-17T03:47:58.343Z,9.77
2017-07-17T03:50:25.872Z,13.27
2017-07-17T03:52:53.407Z,8.70
2017-07-17T03:55:20.931Z,7.70
2017-07-17T03:57:48.812Z,9.00
2017-07-17T04:00:16.336Z,12.60
2017-07-17T04:02:43.878Z,9.30
2017-07-17T04:05:11.427Z,8.80
2017-07-17T04:07:38.998Z,13.13
2017-07-17T04:10:06.597Z,11.00
2017-07-17T04:12:34.127Z,11.37
2017-07-17T04:15:02.035Z,8.80
2017-07-17T04:17:31.981Z,12.40
2017-07-17T04:19:59.541Z,9.87
2017-07-17T04:22:27.107Z,9.70
2017-07-17T04:24:54.694Z,10.70
2017-07-17T04:27:22.367Z,11.80
2017-07-17T04:29:49.908Z,9.80
2017-07-17T04:32:17.476Z,8.37
2017-07-17T04:34:45.118Z,8.20
2017-07-17T04:37:12.715Z,7.70
2017-07-17T04:39:40.285Z,8.43
2017-07-17T04:42:07.832Z,8.10
2017-07-17T04:44:35.383Z,8.23
2017-07-17T04:47:03.023Z,10.27
2017-07-17T04:49:30.859Z,8.07
2017-07-17T04:51:58.417Z,8.40
2017-07-17T04:54:25.987Z,9.77
2017-07-17T04:56:53.539Z,12.57
2017-07-17T04:59:21.087Z,10.80
2017-07-17T05:01:48.646Z,13.97
2017-07-17T05:04:16.952Z,11.03
2017-07-17T05:06:44.495Z,11.93
2017-07-17T05:09:12.056Z,14.90
2017-07-17T05:11:39.591Z,12.37
2017-07-17T05:14:07.111Z,11.60
2017-07-17T05:16:35.005Z,9.80
2017-07-17T05:19:02.526Z,9.83
2017-07-17T05:21:30.040Z,9.23
2017-07-17T05:23:57.830Z,9.57
2017-07-17T05:26:25.346Z,9.40
2017-07-17T05:28:52.858Z,13.20
2017-07-17T05:31:20.406Z,14.33
2017-07-17T05:33:47.919Z,12.00
2017-07-17T05:36:15.460Z,16.33
2017-07-17T05:38:43.079Z,10.47
2017-07-17T05:41:10.596Z,14.30
2017-07-17T05:43:38.133Z,15.07
2017-07-17T05:46:06.112Z,14.43
2017-07-17T05:48:33.640Z,10.73
2017-07-17T05:51:01.156Z,13.90
2017-07-17T05:53:29.344Z,13.67
2017-07-17T05:55:57.636Z,13.27
2017-07-17T05:58:25.150Z,11.97
2017-07-17T06:00:52.829Z,14.73
2017-07-17T06:03:20.380Z,14.80
2017-07-17T06:05:47.913Z,16.07
2017-07-17T06:08:15.456Z,14.20
2017-07-17T06:10:42.984Z,13.53
2017-07-17T06:13:11.290Z,15.87
2017-07-17T06:15:38.821Z,14.87
2017-07-17T06:18:06.741Z,14.50
2017-07-17T06:20:34.244Z,22.27
2017-07-17T06:23:02.537Z,16.80
2017-07-17T06:25:30.079Z,20.17
2017-07-17T06:27:57.594Z,15.73
2017-07-17T06:30:25.148Z,12.93
2017-07-17T06:32:52.715Z,14.50
2017-07-17T06:35:20.224Z,13.70
2017-07-17T06:37:47.792Z,13.70
2017-07-17T06:40:15.704Z,11.73
2017-07-17T06:42:43.233Z,11.50
2017-07-17T06:45:10.770Z,10.43
2017-07-17T06:47:38.558Z,10.17
2017-07-17T06:50:06.091Z,9.00
2017-07-17T06:52:33.606Z,9.03
2017-07-17T06:55:01.144Z,11.27
2017-07-17T06:57:29.483Z,12.23
2017-07-17T06:59:57.018Z,12.73
2017-07-17T07:02:25.308Z,9.10
2017-07-17T07:04:52.785Z,10.97
2017-07-17T07:07:20.319Z,9.07
2017-07-17T07:09:48.242Z,7.00
2017-07-17T07:12:15.764Z,8.97
2017-07-17T07:14:43.302Z,9.47
2017-07-17T07:17:10.840Z,9.13
2017-07-17T07:19:38.389Z,7.23
2017-07-17T07:22:05.891Z,7.60
2017-07-17T07:24:33.695Z,11.13
2017-07-17T07:27:01.217Z,9.97
2017-07-17T07:29:28.745Z,9.03
2017-07-17T07:31:56.274Z,7.70
2017-07-17T07:34:23.790Z,8.43
2017-07-17T07:36:51.321Z,12.70
2017-07-17T07:39:18.851Z,10.27
2017-07-17T07:41:46.395Z,8.10
2017-07-17T07:44:13.910Z,8.63
2017-07-17T07:46:42.595Z,10.70
2017-07-17T07:49:10.877Z,9.60
2017-07-17T07:51:39.174Z,8.30
2017-07-17T07:54:07.013Z,7.87
2017-07-17T07:56:35.317Z,11.53
2017-07-17T07:59:02.834Z,9.63
2017-07-17T08:01:30.620Z,8.80
2017-07-17T08:03:58.906Z,8.53
2017-07-17T08:06:26.416Z,8.13
2017-07-17T08:08:53.990Z,8.17
2017-07-17T08:11:21.540Z,14.97
2017-07-17T08:13:49.087Z,13.23
2017-07-17T08:16:16.622Z,11.43
2017-07-17T08:18:44.164Z,6.97
2017-07-17T08:21:11.702Z,7.00
2017-07-17T08:23:40.359Z,8.10
2017-07-17T08:26:07.891Z,8.03
2017-07-17T08:28:35.436Z,7.23
2017-07-17T08:31:02.970Z,11.37
2017-07-17T08:33:31.264Z,8.80
2017-07-17T08:35:58.802Z,7.37
2017-07-17T08:38:26.330Z,6.77
2017-07-17T08:40:54.701Z,11.20
2017-07-17T08:43:22.245Z,10.30
2017-07-17T08:45:49.793Z,11.17
2017-07-17T08:48:17.319Z,10.33
2017-07-17T08:50:44.856Z,11.07
2017-07-17T08:53:12.391Z,9.87
2017-07-17T08:55:39.914Z,8.00
2017-07-17T08:58:07.829Z,8.13
2017-07-17T09:00:35.351Z,7.90
2017-07-17T09:03:02.864Z,8.97
2017-07-17T09:05:30.415Z,10.50
2017-07-17T09:07:57.963Z,9.10
2017-07-17T09:10:25.956Z,6.90
2017-07-17T09:12:54.256Z,9.67
2017-07-17T09:15:21.764Z,7.27
2017-07-17T09:17:49.331Z,9.37
2017-07-17T09:20:16.856Z,11.63
2017-07-17T09:22:44.410Z,7.90
2017-07-17T09:25:11.949Z,9.90
2017-07-17T09:27:39.765Z,8.70
2017-07-17T09:30:07.304Z,8.00
2017-07-17T09:32:35.303Z,8.43
2017-07-17T09:35:02.851Z,10.03
2017-07-17T09:37:30.378Z,9.40
2017-07-17T09:39:57.920Z,7.87
2017-07-17T09:42:25.490Z,6.97
2017-07-17T09:44:53.051Z,7.23
2017-07-17T09:47:20.869Z,8.80
2017-07-17T09:49:48.398Z,7.30
2017-07-17T09:52:15.936Z,6.97
2017-07-17T09:54:43.471Z,8.07
2017-07-17T09:57:11.005Z,7.43
2017-07-17T09:59:39.328Z,6.10
2017-07-17T10:02:06.850Z,9.97
2017-07-17T10:04:34.427Z,7.00
2017-07-17T10:07:01.964Z,9.83
2017-07-17T10:09:29.510Z,9.20
2017-07-17T10:11:57.048Z,7.87
2017-07-17T10:14:24.582Z,7.13
2017-07-17T10:16:52.123Z,8.40
2017-07-17T10:19:20.418Z,7.23
2017-07-17T10:21:48.260Z,8.67
2017-07-17T10:24:15.800Z,11.53
2017-07-17T10:26:43.336Z,8.27
2017-07-17T10:29:10.873Z,6.70
2017-07-17T10:31:38.430Z,6.83
2017-07-17T10:34:05.969Z,7.83
2017-07-17T10:36:33.563Z,7.67
2017-07-17T10:39:01.096Z,7.10
2017-07-17T10:41:28.644Z,5.90
2017-07-17T10:43:56.231Z,6.10
2017-07-17T10:46:23.791Z,6.70
2017-07-17T10:48:51.361Z,7.07
2017-07-17T10:51:19.379Z,7.03
2017-07-17T10:53:47.689Z,6.30
2017-07-17T10:56:15.221Z,7.30
2017-07-17T10:58:42.756Z,6.73
2017-07-17T11:01:10.281Z,7.13
2017-07-17T11:03:37.825Z,7.67
2017-07-17T11:06:05.371Z,7.43
2017-07-17T11:08:32.927Z,10.67
2017-07-17T11:11:00.447Z,6.77
2017-07-17T11:13:28.307Z,6.57
2017-07-17T11:15:55.837Z,5.47
2017-07-17T11:18:23.367Z,6.60
2017-07-17T11:20:51.229Z,5.00
2017-07-17T11:23:18.994Z,5.20
2017-07-17T11:25:46.901Z,4.60
2017-07-17T11:28:14.444Z,6.70
2017-07-17T11:30:42.002Z,5.13
2017-07-17T11:33:09.567Z,13.97
2017-07-17T11:35:37.117Z,4.80
2017-07-17T11:38:04.687Z,5.50
2017-07-17T11:40:32.244Z,5.00
2017-07-17T11:42:59.796Z,4.93
2017-07-17T11:45:28.413Z,5.13
2017-07-17T12:00:28.317Z,6.77
2017-07-17T12:02:55.878Z,6.23
2017-07-17T12:07:50.432Z,6.27
2017-07-17T12:10:17.991Z,5.73
2017-07-17T12:12:45.557Z,5.80
2017-07-17T12:15:13.088Z,6.40
2017-07-17T12:17:40.632Z,7.27
2017-07-17T12:20:08.220Z,8.23
2017-07-17T12:22:35.748Z,8.03
2017-07-17T12:25:04.057Z,7.73
2017-07-17T12:27:31.612Z,8.37
2017-07-17T12:29:59.153Z,9.20
2017-07-17T12:32:27.501Z,7.43
2017-07-17T12:34:55.077Z,7.40
2017-07-17T12:37:23.416Z,7.47
2017-07-17T12:39:50.948Z,7.60
2017-07-17T12:42:18.483Z,7.70
2017-07-17T12:44:46.808Z,8.60
2017-07-17T12:47:14.369Z,8.23
2017-07-17T12:49:42.278Z,10.93
2017-07-17T12:52:09.836Z,8.83
2017-07-17T12:54:37.369Z,9.57
2017-07-17T12:57:04.931Z,6.90
2017-07-17T12:59:32.498Z,8.77
2017-07-17T13:02:00.069Z,9.80
2017-07-17T13:04:27.603Z,7.60
2017-07-17T13:06:55.173Z,8.17
2017-07-17T13:09:22.717Z,11.83
2017-07-17T13:11:50.611Z,9.83
2017-07-17T13:14:18.150Z,9.37
2017-07-17T13:16:45.681Z,10.37
2017-07-17T13:19:13.245Z,8.27
2017-07-17T13:21:40.791Z,9.97
2017-07-17T13:24:08.337Z,7.97
2017-07-17T13:26:35.913Z,9.17
2017-07-17T13:29:03.493Z,8.10
2017-07-17T13:31:31.031Z,7.63
2017-07-17T13:33:58.966Z,7.93
2017-07-17T13:36:27.257Z,8.70
2017-07-17T13:38:54.798Z,8.47
2017-07-17T13:41:22.365Z,8.53
2017-07-17T13:43:50.688Z,8.10
2017-07-17T13:46:18.224Z,9.43
2017-07-17T13:48:46.166Z,9.93
2017-07-17T13:51:14.466Z,9.03
2017-07-17T13:53:42.008Z,8.97
2017-07-17T13:56:09.953Z,10.53
2017-07-17T13:58:37.506Z,9.97
2017-07-17T14:01:05.057Z,9.27
2017-07-17T14:03:32.605Z,9.00
2017-07-17T14:06:00.166Z,12.10
2017-07-17T14:08:27.732Z,7.97
2017-07-17T14:10:55.271Z,8.90
2017-07-17T14:13:22.824Z,9.47
2017-07-17T14:15:50.372Z,9.10
2017-07-17T14:18:18.171Z,9.37
2017-07-17T14:20:45.727Z,8.73
2017-07-17T14:23:13.265Z,8.33
2017-07-17T14:25:40.823Z,9.37
2017-07-17T14:28:08.362Z,9.50
2017-07-17T14:30:35.940Z,12.43
2017-07-17T14:33:03.489Z,14.93
2017-07-17T14:35:31.542Z,12.43
2017-07-17T14:37:59.857Z,11.67
2017-07-17T14:40:27.396Z,10.20
2017-07-17T14:42:55.318Z,12.10
2017-07-17T14:45:22.846Z,8.40
2017-07-17T14:47:50.374Z,10.37
2017-07-17T14:50:18.312Z,8.80
2017-07-17T14:52:45.838Z,9.90
2017-07-17T14:55:13.360Z,8.40
2017-07-17T14:57:40.927Z,8.33
2017-07-17T15:00:08.496Z,9.67
2017-07-17T15:02:36.195Z,9.40
2017-07-17T15:05:04.089Z,8.83
2017-07-17T15:07:31.623Z,8.70
2017-07-17T15:09:59.168Z,7.93
2017-07-17T15:12:26.703Z,8.10
2017-07-17T15:14:54.242Z,7.50
2017-07-17T15:17:21.795Z,7.97
2017-07-17T15:19:50.102Z,7.57
2017-07-17T15:22:17.631Z,11.03
2017-07-17T15:24:45.194Z,8.03
2017-07-17T15:27:12.736Z,13.20
2017-07-17T15:29:40.272Z,8.13
2017-07-17T15:32:07.804Z,7.37
2017-07-17T15:34:35.346Z,7.40
2017-07-17T15:37:02.890Z,6.73
2017-07-17T15:39:30.447Z,6.87
2017-07-17T15:41:58.002Z,6.63
2017-07-17T15:44:25.544Z,6.10
2017-07-17T15:46:53.075Z,6.20
2017-07-17T15:49:20.638Z,6.63
2017-07-17T15:51:48.237Z,6.70
2017-07-17T15:54:16.906Z,6.23
2017-07-17T15:56:45.215Z,6.07
2017-07-17T15:59:12.763Z,5.83
2017-07-17T16:01:40.332Z,6.17
2017-07-17T16:04:07.884Z,5.50
2017-07-17T16:06:35.451Z,5.00
2017-07-17T16:09:02.998Z,6.40
2017-07-17T16:11:30.540Z,5.10
2017-07-17T16:13:58.910Z,5.80
2017-07-17T16:16:26.490Z,5.57
2017-07-17T16:18:54.856Z,5.50
2017-07-17T16:21:22.462Z,4.83
2017-07-17T16:23:49.994Z,9.30
2017-07-17T16:26:17.559Z,5.43
2017-07-17T16:28:45.207Z,6.40
2017-07-17T16:31:12.759Z,5.60
2017-07-17T16:33:40.335Z,5.03
2017-07-17T16:36:07.876Z,5.23
2017-07-17T16:38:35.513Z,4.80
2017-07-17T16:41:03.512Z,5.20
2017-07-17T16:43:31.853Z,5.50
2017-07-17T16:45:59.402Z,4.10
2017-07-17T16:48:27.003Z,4.23
2017-07-17T16:50:54.548Z,5.47
2017-07-17T16:53:22.117Z,4.43
2017-07-17T16:55:49.702Z,4.10
2017-07-17T16:58:17.236Z,6.80
2017-07-17T17:00:44.843Z,4.37
2017-07-17T17:03:12.559Z,3.93
2017-07-17T17:05:40.107Z,4.07
2017-07-17T17:08:07.661Z,3.63
2017-07-17T17:10:36.421Z,4.03
2017-07-17T17:13:03.968Z,5.90
2017-07-17T17:15:31.547Z,4.00
2017-07-17T17:17:59.534Z,3.63
2017-07-17T17:20:27.064Z,3.53
2017-07-17T17:22:54.617Z,3.20
2017-07-17T17:25:22.844Z,3.43
2017-07-17T17:27:50.404Z,3.00
2017-07-17T17:30:17.939Z,3.60
2017-07-17T17:32:45.735Z,3.63
2017-07-17T17:35:14.064Z,4.43
2017-07-17T17:37:41.628Z,3.50
2017-07-17T17:40:09.568Z,6.77
2017-07-17T17:42:37.370Z,4.00
2017-07-17T17:45:04.940Z,4.87
2017-07-17T17:47:32.638Z,4.53
2017-07-17T17:50:00.184Z,3.60
2017-07-17T17:52:28.515Z,3.23
2017-07-17T17:54:56.369Z,3.10
2017-07-17T17:57:23.949Z,4.03
2017-07-17T17:59:52.776Z,3.33
2017-07-17T18:02:21.573Z,2.90
2017-07-17T18:04:50.151Z,5.97
2017-07-17T18:07:19.011Z,3.57
2017-07-17T18:09:47.045Z,4.07
2017-07-17T18:12:15.905Z,2.83
2017-07-17T18:14:43.644Z,4.70
2017-07-17T18:17:11.326Z,3.20
2017-07-17T18:19:39.854Z,2.97
2017-07-17T18:22:07.469Z,3.27
2017-07-17T18:24:35.810Z,3.00
2017-07-17T18:27:03.393Z,3.30
2017-07-17T18:29:30.934Z,4.50
2017-07-17T18:31:58.498Z,3.57
2017-07-17T18:34:26.071Z,3.03
2017-07-17T18:36:56.259Z,3.37
2017-07-17T18:39:23.829Z,2.53
2017-07-17T18:41:51.696Z,2.70
2017-07-17T18:44:19.539Z,4.40
2017-07-17T18:46:47.077Z,3.43
2017-07-17T18:49:14.612Z,3.73
2017-07-17T18:51:42.877Z,3.60
2017-07-17T18:54:10.415Z,2.80
2017-07-17T18:56:37.978Z,3.80
2017-07-17T18:59:06.134Z,2.77
2017-07-17T19:01:33.694Z,3.33
2017-07-17T19:04:01.223Z,3.60
2017-07-17T19:06:29.069Z,3.13
2017-07-17T19:08:57.427Z,3.27
2017-07-17T19:11:24.960Z,3.67
2017-07-17T19:13:52.512Z,3.83
2017-07-17T19:16:20.070Z,4.63
2017-07-17T19:18:47.633Z,2.67
2017-07-17T19:21:15.225Z,2.70
2017-07-17T19:23:42.767Z,6.63
2017-07-17T19:26:10.363Z,3.03
2017-07-17T19:28:38.693Z,3.20
2017-07-17T19:31:06.241Z,3.53
2017-07-17T19:33:33.783Z,3.50
2017-07-17T19:36:01.373Z,3.80
2017-07-17T19:38:28.937Z,3.63
2017-07-17T19:40:56.490Z,5.33
2017-07-17T19:43:24.050Z,4.20
2017-07-17T19:45:52.056Z,6.83
2017-07-17T19:48:19.592Z,4.67
2017-07-17T19:50:47.126Z,4.97
2017-07-17T19:53:14.684Z,5.10
2017-07-17T19:55:42.237Z,4.97
2017-07-17T19:58:09.796Z,6.73
2017-07-17T20:00:37.614Z,5.57
2017-07-17T20:03:05.137Z,4.43
2017-07-17T20:05:32.691Z,9.73
2017-07-17T20:08:00.257Z,4.27
2017-07-17T20:10:27.838Z,5.00
2017-07-17T20:12:55.407Z,5.80
2017-07-17T20:15:22.983Z,5.50
2017-07-17T20:17:51.302Z,5.13
2017-07-17T20:20:19.153Z,6.03
2017-07-17T20:22:46.708Z,6.47
2017-07-17T20:25:14.285Z,5.40
2017-07-17T20:27:41.835Z,5.47
2017-07-17T20:30:09.404Z,5.27
2017-07-17T20:32:36.980Z,5.13
2017-07-17T20:35:04.530Z,5.53
2017-07-17T20:37:32.577Z,6.03
2017-07-17T20:40:00.135Z,6.50
2017-07-17T20:42:27.686Z,6.00
2017-07-17T20:44:55.246Z,6.40
2017-07-17T20:47:23.223Z,5.70
2017-07-17T20:49:50.770Z,6.27
2017-07-17T20:52:18.302Z,6.60
2017-07-17T20:54:46.176Z,6.80
2017-07-17T20:57:13.705Z,5.93
2017-07-17T20:59:41.247Z,6.20
2017-07-17T21:02:09.174Z,6.40
2017-07-17T21:04:37.514Z,6.43
2017-07-17T21:07:05.086Z,5.97
2017-07-17T21:09:32.966Z,6.70
2017-07-17T21:12:00.483Z,6.93
2017-07-17T21:14:28.031Z,9.50
2017-07-17T21:16:55.575Z,7.13
2017-07-17T21:19:23.097Z,7.13
2017-07-17T21:21:50.667Z,6.00
2017-07-17T21:24:19.259Z,6.93
2017-07-17T21:26:46.822Z,7.00
2017-07-17T21:29:15.137Z,6.93
2017-07-17T21:31:42.685Z,6.63
2017-07-17T21:34:10.273Z,7.57
2017-07-17T21:36:37.808Z,6.13
2017-07-17T21:39:05.399Z,6.40
2017-07-17T21:41:32.946Z,7.17
2017-07-17T21:44:00.491Z,9.07
2017-07-17T21:46:28.507Z,6.97
2017-07-17T21:48:56.162Z,8.33
2017-07-17T21:51:23.694Z,6.77
2017-07-17T21:53:51.530Z,7.10
2017-07-17T21:56:19.062Z,6.70
2017-07-17T21:58:46.618Z,8.73
2017-07-17T22:01:14.945Z,8.27
2017-07-17T22:03:42.486Z,8.87
2017-07-17T22:06:10.054Z,8.37
2017-07-17T22:08:37.611Z,7.33
2017-07-17T22:11:05.180Z,9.10
2017-07-17T22:13:32.731Z,7.47
2017-07-17T22:16:00.297Z,7.47
2017-07-17T22:18:27.878Z,7.23
2017-07-17T22:20:56.657Z,8.07
2017-07-17T22:23:24.644Z,7.27
2017-07-17T22:25:52.182Z,7.60
2017-07-17T22:28:19.708Z,10.43
2017-07-17T22:30:47.251Z,7.50
2017-07-17T22:33:15.570Z,11.53
2017-07-17T22:35:43.861Z,10.30
2017-07-17T22:38:11.402Z,8.13
2017-07-17T22:40:39.312Z,7.20
2017-07-17T22:43:06.830Z,8.10
2017-07-17T22:45:34.413Z,8.93
2017-07-17T22:48:01.959Z,10.27
2017-07-17T22:50:29.487Z,7.30
2017-07-17T22:52:57.069Z,8.63
2017-07-17T22:55:24.629Z,9.13
2017-07-17T22:57:52.171Z,8.17
2017-07-17T23:00:19.710Z,11.90
2017-07-17T23:02:47.647Z,9.83
2017-07-17T23:05:15.175Z,9.40
2017-07-17T23:07:42.757Z,10.80
2017-07-17T23:10:11.571Z,10.87
2017-07-17T23:12:39.903Z,13.20
2017-07-17T23:15:07.427Z,9.40
2017-07-17T23:17:34.959Z,9.80
2017-07-17T23:20:02.498Z,10.47
2017-07-17T23:22:30.027Z,9.50
2017-07-17T23:24:57.589Z,9.03
2017-07-17T23:27:25.108Z,9.90
2017-07-17T23:29:52.647Z,9.70
2017-07-17T23:32:20.192Z,13.97
2017-07-17T23:34:47.742Z,10.27
2017-07-17T23:37:15.270Z,11.80
2017-07-17T23:39:42.831Z,10.00
2017-07-17T23:42:10.351Z,12.13
2017-07-17T23:44:38.678Z,10.10
2017-07-17T23:47:06.242Z,9.60
2017-07-17T23:49:33.781Z,10.83
2017-07-17T23:52:01.613Z,8.70
2017-07-17T23:54:30.512Z,8.77
2017-07-17T23:56:58.811Z,13.07
2017-07-17T23:59:26.639Z,9.50
